Time;durP1;ratioP1;P1;durP2;ratioP2;P2;SDS_P1;SDS_P2;PMS_P1;PMS_P2;Temp;Humidity;BMP_temperature;BMP_pressure;BME280_temperature;BME280_humidity;BME280_pressure;Samples;Min_cycle;Max_cycle;Signal;HPM_P1;HPM_P2
2022/10/06 00:00:31;;;;;;;7.67;6.70;;;21.00;99.90;;;;;;5143883;27;20427;-67
2022/10/06 00:03:02;;;;;;;9.70;7.30;;;21.00;99.90;;;;;;5139708;27;20579;-67
2022/10/06 00:05:34;;;;;;;6.93;6.23;;;21.00;99.90;;;;;;5123591;28;20455;-68
2022/10/06 00:08:05;;;;;;;8.67;6.83;;;20.90;99.90;;;;;;5123717;28;20417;-67
2022/10/06 00:10:39;;;;;;;7.93;6.90;;;20.90;99.90;;;;;;5122499;28;20464;-67
2022/10/06 00:13:10;;;;;;;10.93;7.50;;;20.80;99.90;;;;;;5122411;28;20446;-67
2022/10/06 00:15:41;;;;;;;8.20;7.37;;;20.80;99.90;;;;;;5123138;28;20557;-67
2022/10/06 00:18:11;;;;;;;9.30;7.23;;;20.80;99.90;;;;;;5123005;28;20517;-68
2022/10/06 00:20:44;;;;;;;8.60;6.90;;;20.80;99.90;;;;;;5129767;27;20509;-67
2022/10/06 00:23:16;;;;;;;8.00;7.20;;;20.70;99.90;;;;;;5134239;27;20468;-67
2022/10/06 00:25:47;;;;;;;8.40;7.50;;;20.70;99.90;;;;;;5114541;28;20470;-67
2022/10/06 00:28:18;;;;;;;9.37;7.37;;;20.80;99.90;;;;;;5108820;28;20458;-67
2022/10/06 00:30:52;;;;;;;7.57;6.77;;;20.70;99.90;;;;;;5129317;28;20459;-68
2022/10/06 00:33:22;;;;;;;9.00;6.93;;;20.60;99.90;;;;;;5131436;27;20455;-67
2022/10/06 00:36:00;;;;;;;9.77;6.93;;;20.60;99.90;;;;;;5126986;28;20480;-66
2022/10/06 00:38:31;;;;;;;8.77;6.90;;;20.50;99.90;;;;;;5126072;28;20434;-67
2022/10/06 00:41:02;;;;;;;9.13;7.47;;;20.40;99.90;;;;;;5108481;28;20437;-66
2022/10/06 00:43:46;;;;;;;8.90;7.70;;;20.40;99.90;;;;;;5118441;28;20461;-66
2022/10/06 00:46:38;;;;;;;8.83;6.53;;;20.30;99.90;;;;;;5130517;28;20462;-67
2022/10/06 00:49:14;;;;;;;9.37;7.33;;;20.20;99.90;;;;;;5118589;28;20469;-67
2022/10/06 00:51:49;;;;;;;8.87;6.70;;;20.20;99.90;;;;;;5130181;27;20932;-66
2022/10/06 00:54:21;;;;;;;8.40;6.63;;;20.10;99.90;;;;;;5139632;27;20440;-67
2022/10/06 00:56:53;;;;;;;8.97;7.57;;;20.10;99.90;;;;;;5123531;27;20528;-70
2022/10/06 00:59:24;;;;;;;6.47;5.87;;;20.00;99.90;;;;;;5140162;27;20436;-64
2022/10/06 01:02:02;;;;;;;7.40;6.40;;;19.90;99.90;;;;;;5141179;27;20510;-66
2022/10/06 01:04:35;;;;;;;9.10;7.30;;;19.80;99.90;;;;;;5135241;27;20793;-66
2022/10/06 01:07:08;;;;;;;8.13;6.37;;;19.70;99.90;;;;;;5140035;27;20521;-66
2022/10/06 01:09:40;;;;;;;6.80;6.10;;;19.70;99.90;;;;;;5146188;27;20444;-66
2022/10/06 01:12:11;;;;;;;7.07;6.37;;;19.60;99.90;;;;;;5135455;27;20441;-66
2022/10/06 01:14:43;;;;;;;9.33;6.40;;;19.50;99.90;;;;;;5132139;27;20453;-68
2022/10/06 01:17:20;;;;;;;8.13;6.70;;;19.40;99.90;;;;;;5122673;27;20419;-69
2022/10/06 01:19:53;;;;;;;9.17;7.17;;;19.30;99.90;;;;;;5137523;27;20427;-68
2022/10/06 01:22:31;;;;;;;9.33;7.97;;;19.20;99.90;;;;;;5143809;27;20488;-67
2022/10/06 01:25:03;;;;;;;10.83;7.50;;;19.30;99.90;;;;;;5123359;27;20462;-67
2022/10/06 01:27:36;;;;;;;10.73;8.10;;;19.30;99.90;;;;;;5131002;27;20545;-68
2022/10/06 01:30:09;;;;;;;8.40;6.70;;;19.20;99.90;;;;;;5133198;27;22118;-67
2022/10/06 01:32:41;;;;;;;10.43;7.60;;;19.20;99.90;;;;;;5126302;27;20526;-68
2022/10/06 01:35:13;;;;;;;8.10;6.90;;;19.00;99.90;;;;;;5136137;27;20910;-67
2022/10/06 01:37:45;;;;;;;10.30;7.93;;;19.00;99.90;;;;;;5122021;27;20462;-67
2022/10/06 01:40:17;;;;;;;9.90;7.60;;;18.80;99.90;;;;;;5131303;27;20530;-67
2022/10/06 01:42:48;;;;;;;12.50;8.03;;;18.60;99.90;;;;;;5145068;27;20433;-67
2022/10/06 01:45:19;;;;;;;9.97;7.43;;;18.50;99.90;;;;;;5135262;27;20433;-69
2022/10/06 01:47:50;;;;;;;9.43;7.10;;;18.40;99.90;;;;;;5138214;27;20431;-68
2022/10/06 01:50:21;;;;;;;10.53;7.97;;;18.30;99.90;;;;;;5143358;27;20455;-67
2022/10/06 01:52:55;;;;;;;8.80;6.60;;;18.20;99.90;;;;;;5130815;27;20451;-68
2022/10/06 01:55:26;;;;;;;9.70;7.37;;;18.10;99.90;;;;;;5133708;27;20506;-64
2022/10/06 01:57:57;;;;;;;8.40;6.93;;;18.00;99.90;;;;;;5143830;27;20511;-65
2022/10/06 02:00:27;;;;;;;9.23;7.70;;;17.80;99.90;;;;;;5128859;27;20473;-64
2022/10/06 02:02:59;;;;;;;10.10;7.90;;;17.80;99.90;;;;;;5128490;27;20435;-65
2022/10/06 02:05:29;;;;;;;9.20;7.93;;;17.70;99.90;;;;;;5127508;27;20773;-67
2022/10/06 02:08:02;;;;;;;11.70;9.13;;;17.70;99.90;;;;;;5137398;27;20496;-68
2022/10/06 02:10:35;;;;;;;9.47;6.70;;;17.50;99.90;;;;;;5135544;27;20486;-69
2022/10/06 02:13:06;;;;;;;9.03;7.57;;;17.50;99.90;;;;;;5136671;27;20478;-67
2022/10/06 02:15:37;;;;;;;9.10;7.60;;;17.60;99.90;;;;;;5126938;27;20458;-70
2022/10/06 02:18:08;;;;;;;10.93;9.80;;;17.60;99.90;;;;;;5129497;27;20481;-66
2022/10/06 02:20:39;;;;;;;10.13;7.90;;;17.60;99.90;;;;;;5129239;27;20451;-65
2022/10/06 02:23:11;;;;;;;9.77;6.87;;;17.70;99.90;;;;;;5145064;27;20445;-66
2022/10/06 02:25:42;;;;;;;8.90;7.20;;;17.60;99.90;;;;;;5123738;27;20500;-65
2022/10/06 02:28:13;;;;;;;10.73;7.97;;;17.70;99.90;;;;;;5126225;27;20507;-66
2022/10/06 02:30:44;;;;;;;9.60;8.20;;;17.60;99.90;;;;;;5109000;27;20485;-66
2022/10/06 02:33:15;;;;;;;9.97;8.20;;;17.60;99.90;;;;;;5139909;27;20470;-66
2022/10/06 02:35:46;;;;;;;10.10;7.60;;;17.60;99.90;;;;;;5132158;27;20524;-65
2022/10/06 02:38:19;;;;;;;8.57;7.43;;;17.60;99.90;;;;;;5131860;27;20573;-66
2022/10/06 02:40:50;;;;;;;10.80;8.53;;;17.40;99.90;;;;;;5131074;27;20835;-67
2022/10/06 02:43:21;;;;;;;11.00;8.73;;;17.30;99.90;;;;;;5128895;27;21876;-67
2022/10/06 02:45:55;;;;;;;9.43;8.17;;;17.20;99.90;;;;;;5115909;27;20545;-65
2022/10/06 02:48:27;;;;;;;8.63;7.83;;;17.10;99.90;;;;;;5139422;27;20456;-66
2022/10/06 02:51:00;;;;;;;12.00;8.50;;;17.00;99.90;;;;;;5126433;27;20501;-66
2022/10/06 02:53:33;;;;;;;10.57;7.10;;;17.00;99.90;;;;;;5119075;27;20547;-66
2022/10/06 02:56:05;;;;;;;9.13;7.67;;;17.00;99.90;;;;;;5120101;27;20457;-66
2022/10/06 02:58:37;;;;;;;10.53;7.43;;;16.80;99.90;;;;;;5125963;27;20545;-65
2022/10/06 03:01:09;;;;;;;9.93;8.57;;;16.80;99.90;;;;;;5134024;27;20461;-66
2022/10/06 03:03:40;;;;;;;12.47;9.10;;;16.70;99.90;;;;;;5125128;27;20620;-65
2022/10/06 03:06:22;;;;;;;13.20;9.87;;;16.70;99.90;;;;;;5120490;27;20523;-65
2022/10/06 03:08:56;;;;;;;11.37;9.00;;;16.70;99.90;;;;;;5139851;27;20456;-66
2022/10/06 03:11:28;;;;;;;10.90;8.07;;;16.60;99.90;;;;;;5129267;27;20487;-66
2022/10/06 03:13:59;;;;;;;10.60;9.50;;;16.60;99.90;;;;;;5137127;27;20458;-65
2022/10/06 03:16:32;;;;;;;12.93;9.87;;;16.60;99.90;;;;;;5127856;27;20457;-66
2022/10/06 03:19:04;;;;;;;11.40;9.03;;;16.50;99.90;;;;;;5141106;27;20452;-65
2022/10/06 03:21:36;;;;;;;10.50;8.67;;;16.40;99.90;;;;;;5138047;27;20514;-68
2022/10/06 03:24:09;;;;;;;11.23;8.03;;;16.30;99.90;;;;;;5110961;27;20454;-65
2022/10/06 03:26:41;;;;;;;13.27;9.70;;;16.30;99.90;;;;;;5141026;27;20448;-68
2022/10/06 03:29:12;;;;;;;9.30;8.40;;;16.30;99.90;;;;;;5108686;27;20450;-67
2022/10/06 03:31:44;;;;;;;13.90;9.43;;;16.20;99.90;;;;;;5129389;27;20480;-68
2022/10/06 03:34:14;;;;;;;11.03;9.17;;;16.20;99.90;;;;;;5135502;27;20477;-68
2022/10/06 03:36:45;;;;;;;10.53;9.03;;;16.10;99.90;;;;;;5123558;27;20460;-68
2022/10/06 03:39:18;;;;;;;11.10;8.43;;;16.10;99.90;;;;;;5143606;27;20449;-65
2022/10/06 03:41:48;;;;;;;14.83;9.87;;;16.10;99.90;;;;;;5123690;27;20513;-65
2022/10/06 03:44:20;;;;;;;11.57;9.60;;;16.00;99.90;;;;;;5130157;27;20454;-68
2022/10/06 03:46:51;;;;;;;11.90;9.47;;;15.90;99.90;;;;;;5107188;27;20533;-66
2022/10/06 03:49:22;;;;;;;10.70;9.23;;;15.90;99.90;;;;;;5139357;27;20512;-66
2022/10/06 03:51:54;;;;;;;11.93;9.70;;;15.90;99.90;;;;;;5137959;27;20488;-67
2022/10/06 03:54:27;;;;;;;11.10;9.20;;;15.80;99.90;;;;;;5143189;27;20449;-68
2022/10/06 03:56:57;;;;;;;12.40;9.07;;;15.80;99.90;;;;;;5124936;27;20521;-67
2022/10/06 03:59:32;;;;;;;10.90;9.20;;;15.70;99.90;;;;;;5115023;27;20479;-68
2022/10/06 04:02:04;;;;;;;13.17;9.87;;;15.60;99.90;;;;;;5123741;27;20547;-68
2022/10/06 04:04:34;;;;;;;9.70;8.53;;;15.60;99.90;;;;;;5138656;27;20453;-67
2022/10/06 04:07:05;;;;;;;13.20;9.83;;;15.50;99.90;;;;;;5126659;27;20530;-67
2022/10/06 04:09:38;;;;;;;13.27;9.87;;;15.50;99.90;;;;;;5133366;27;20598;-67
2022/10/06 04:12:08;;;;;;;12.67;9.40;;;15.40;99.90;;;;;;5108058;27;20494;-67
2022/10/06 04:14:39;;;;;;;13.50;9.90;;;15.40;99.90;;;;;;5125607;27;20456;-66
2022/10/06 04:17:10;;;;;;;10.90;8.83;;;15.40;99.90;;;;;;5115132;27;20457;-67
2022/10/06 04:19:41;;;;;;;9.97;7.63;;;15.30;99.90;;;;;;5130149;27;20549;-65
2022/10/06 04:22:11;;;;;;;12.13;9.67;;;15.30;99.90;;;;;;5138061;27;20448;-66
2022/10/06 04:24:44;;;;;;;11.87;8.63;;;15.30;99.90;;;;;;5142765;27;20441;-66
2022/10/06 04:27:30;;;;;;;12.10;9.73;;;15.10;99.90;;;;;;5127340;27;20487;-66
2022/10/06 04:30:00;;;;;;;11.23;9.63;;;15.10;99.90;;;;;;5107153;28;20458;-64
2022/10/06 04:32:31;;;;;;;12.77;8.83;;;15.00;99.90;;;;;;5134398;27;20497;-66
2022/10/06 04:35:02;;;;;;;11.90;8.70;;;15.00;99.90;;;;;;5125462;28;20518;-66
2022/10/06 04:37:33;;;;;;;13.33;9.27;;;14.90;99.90;;;;;;5132718;27;20883;-65
2022/10/06 04:40:06;;;;;;;14.00;8.60;;;14.90;99.90;;;;;;5111178;28;20503;-65
2022/10/06 04:42:36;;;;;;;11.00;8.80;;;14.90;99.90;;;;;;5134018;27;20481;-65
2022/10/06 04:45:08;;;;;;;11.63;9.03;;;14.90;99.90;;;;;;5123471;28;20893;-65
2022/10/06 04:47:39;;;;;;;10.10;8.30;;;14.90;99.90;;;;;;5102125;28;20539;-65
2022/10/06 04:50:10;;;;;;;16.63;8.70;;;14.80;99.90;;;;;;5114260;28;20481;-67
2022/10/06 04:52:41;;;;;;;11.90;8.83;;;14.80;99.90;;;;;;5133421;27;20493;-66
2022/10/06 04:55:14;;;;;;;12.60;8.80;;;14.80;99.90;;;;;;5117736;28;20454;-67
2022/10/06 04:57:44;;;;;;;11.83;8.60;;;14.80;99.90;;;;;;5130620;28;20525;-67
2022/10/06 05:00:24;;;;;;;13.80;10.03;;;14.80;99.90;;;;;;5143008;27;20501;-67
2022/10/06 05:02:55;;;;;;;13.90;9.77;;;14.80;99.90;;;;;;5132118;27;20510;-67
2022/10/06 05:05:26;;;;;;;16.03;9.90;;;14.70;99.90;;;;;;5122615;28;20481;-67
2022/10/06 05:07:58;;;;;;;12.20;8.93;;;14.70;99.90;;;;;;5140309;27;20456;-67
2022/10/06 05:10:31;;;;;;;14.23;9.40;;;14.70;99.90;;;;;;5142670;27;20433;-67
2022/10/06 05:13:02;;;;;;;13.30;8.63;;;14.70;99.90;;;;;;5119621;28;20892;-66
2022/10/06 05:15:33;;;;;;;12.80;9.70;;;14.70;99.90;;;;;;5139616;27;20460;-67
2022/10/06 05:18:04;;;;;;;12.20;8.73;;;14.70;99.90;;;;;;5120627;28;20478;-66
2022/10/06 05:20:35;;;;;;;11.97;8.53;;;14.70;99.90;;;;;;5139261;27;20513;-66
2022/10/06 05:23:08;;;;;;;13.13;9.07;;;14.70;99.90;;;;;;5139180;27;20456;-67
2022/10/06 05:25:40;;;;;;;11.13;9.27;;;14.70;99.90;;;;;;5142112;27;20429;-67
2022/10/06 05:28:13;;;;;;;13.70;9.20;;;14.70;99.90;;;;;;5129296;28;20457;-66
2022/10/06 05:30:43;;;;;;;12.23;8.80;;;14.70;99.90;;;;;;5132888;28;20470;-66
2022/10/06 05:33:14;;;;;;;11.60;8.27;;;14.60;99.90;;;;;;5128495;27;20625;-66
2022/10/06 05:35:52;;;;;;;12.97;8.90;;;14.60;99.90;;;;;;5131983;28;20973;-66
2022/10/06 05:38:24;;;;;;;13.90;10.30;;;14.60;99.90;;;;;;5135651;28;20441;-66
2022/10/06 05:41:05;;;;;;;13.57;9.37;;;14.60;99.90;;;;;;5141900;27;20447;-66
2022/10/06 05:43:36;;;;;;;10.10;8.73;;;14.60;99.90;;;;;;5140487;27;20482;-66
2022/10/06 05:46:08;;;;;;;13.17;9.53;;;14.50;99.90;;;;;;5138544;27;20549;-66
2022/10/06 05:48:39;;;;;;;12.33;9.23;;;14.50;99.90;;;;;;5143355;27;20444;-66
2022/10/06 05:51:11;;;;;;;11.17;8.30;;;14.50;99.90;;;;;;5133302;27;20464;-66
2022/10/06 05:53:42;;;;;;;11.23;8.83;;;14.50;99.90;;;;;;5115356;27;20493;-66
2022/10/06 05:56:16;;;;;;;12.87;9.00;;;14.50;99.90;;;;;;5136203;27;20448;-66
2022/10/06 05:58:48;;;;;;;13.43;10.40;;;14.40;99.90;;;;;;5135491;27;20452;-66
2022/10/06 06:01:21;;;;;;;9.30;7.37;;;14.40;99.90;;;;;;5133785;27;20457;-66
2022/10/06 06:03:53;;;;;;;14.77;10.00;;;14.40;99.90;;;;;;5120173;27;20518;-66
2022/10/06 06:06:25;;;;;;;11.83;8.50;;;14.40;99.90;;;;;;5128360;27;20518;-66
2022/10/06 06:08:58;;;;;;;11.67;9.60;;;14.30;99.90;;;;;;5118891;27;20460;-66
2022/10/06 06:11:32;;;;;;;13.37;8.93;;;14.30;99.90;;;;;;5133040;27;20445;-66
2022/10/06 06:14:05;;;;;;;13.43;8.13;;;14.20;99.90;;;;;;5129331;27;20489;-65
2022/10/06 06:16:37;;;;;;;10.80;8.90;;;14.20;99.90;;;;;;5112532;27;20525;-65
2022/10/06 06:19:09;;;;;;;12.00;9.23;;;14.20;99.90;;;;;;5145313;27;20947;-65
2022/10/06 06:21:40;;;;;;;13.37;9.40;;;14.20;99.90;;;;;;5144826;27;20814;-66
2022/10/06 06:24:13;;;;;;;12.70;8.90;;;14.10;99.90;;;;;;5144675;27;20449;-66
2022/10/06 06:26:45;;;;;;;15.07;8.70;;;14.20;99.90;;;;;;5144239;27;20441;-65
2022/10/06 06:29:16;;;;;;;14.90;9.00;;;14.20;99.90;;;;;;5134314;27;20457;-66
2022/10/06 06:31:47;;;;;;;11.77;8.00;;;14.20;99.90;;;;;;5144184;27;20478;-65
2022/10/06 06:34:18;;;;;;;12.00;8.80;;;14.10;99.90;;;;;;5138821;27;20493;-66
2022/10/06 06:36:53;;;;;;;10.07;8.30;;;14.10;99.90;;;;;;5122635;27;20565;-65
2022/10/06 06:39:24;;;;;;;11.30;8.63;;;14.10;99.90;;;;;;5124541;27;20461;-65
2022/10/06 06:41:57;;;;;;;14.30;9.43;;;14.00;99.90;;;;;;5136787;27;20453;-65
2022/10/06 06:44:28;;;;;;;13.47;9.33;;;13.90;99.90;;;;;;5113039;27;20555;-65
2022/10/06 06:47:00;;;;;;;11.50;8.77;;;13.90;99.90;;;;;;5131924;27;20460;-65
2022/10/06 06:49:30;;;;;;;11.07;8.63;;;13.80;99.90;;;;;;5132185;27;20534;-65
2022/10/06 06:52:03;;;;;;;12.53;8.90;;;13.90;99.90;;;;;;5131098;27;20519;-65
2022/10/06 06:54:34;;;;;;;11.30;8.20;;;13.90;99.90;;;;;;5138210;27;20481;-65
2022/10/06 06:57:06;;;;;;;11.00;8.53;;;13.90;99.90;;;;;;5138587;27;20478;-65
2022/10/06 06:59:37;;;;;;;12.10;8.60;;;14.00;99.90;;;;;;5116186;27;20459;-65
2022/10/06 07:02:10;;;;;;;11.57;8.27;;;14.00;99.90;;;;;;5125395;27;20543;-65
2022/10/06 07:04:42;;;;;;;13.27;9.40;;;13.90;99.90;;;;;;5117141;27;20457;-65
2022/10/06 07:07:13;;;;;;;10.63;8.43;;;13.80;99.90;;;;;;5128792;27;20461;-65
2022/10/06 07:09:44;;;;;;;12.90;9.33;;;13.80;99.90;;;;;;5128240;27;20457;-65
2022/10/06 07:12:16;;;;;;;10.40;7.70;;;13.70;99.90;;;;;;5134399;27;20453;-65
2022/10/06 07:26:03;;;;;;;10.50;8.70;;;13.50;99.90;;;;;;5126948;27;20521;-64
2022/10/06 07:28:36;;;;;;;11.87;9.13;;;13.50;99.90;;;;;;5134234;27;20509;-64
2022/10/06 07:31:07;;;;;;;12.30;8.70;;;13.40;99.90;;;;;;5130541;27;20461;-64
2022/10/06 07:33:39;;;;;;;11.60;9.40;;;13.50;99.90;;;;;;5132080;27;20499;-65
2022/10/06 07:36:10;;;;;;;11.73;9.00;;;13.60;99.90;;;;;;5128039;27;20532;-65
2022/10/06 07:38:41;;;;;;;14.07;9.70;;;13.50;99.90;;;;;;5134936;27;20604;-64
2022/10/06 07:41:12;;;;;;;11.67;8.00;;;13.50;99.90;;;;;;5120558;27;20461;-64
2022/10/06 07:43:52;;;;;;;15.67;8.90;;;13.50;99.90;;;;;;5131969;27;20449;-64
2022/10/06 07:46:23;;;;;;;11.20;9.40;;;13.50;99.90;;;;;;5140885;27;20444;-65
2022/10/06 07:48:54;;;;;;;13.67;9.07;;;13.30;99.90;;;;;;5140362;27;20545;-65
2022/10/06 07:51:26;;;;;;;13.63;9.47;;;13.40;99.90;;;;;;5137821;27;20464;-65
2022/10/06 07:53:56;;;;;;;12.57;8.73;;;13.30;99.90;;;;;;5125143;27;20596;-65
2022/10/06 07:56:27;;;;;;;11.73;8.60;;;13.40;99.90;;;;;;5127596;27;20506;-65
2022/10/06 07:59:00;;;;;;;13.17;9.40;;;13.40;99.90;;;;;;5134806;27;20470;-66
2022/10/06 08:01:30;;;;;;;11.73;9.30;;;13.30;99.90;;;;;;5134892;27;20482;-65
2022/10/06 08:04:05;;;;;;;12.83;9.03;;;13.30;99.90;;;;;;5128553;27;20584;-65
2022/10/06 08:06:37;;;;;;;11.83;9.03;;;13.40;99.90;;;;;;5111710;27;20493;-65
2022/10/06 08:09:08;;;;;;;13.30;9.43;;;13.30;99.90;;;;;;5103354;28;20506;-65
2022/10/06 08:11:38;;;;;;;11.10;8.53;;;13.40;99.90;;;;;;5117134;27;20501;-65
2022/10/06 08:14:13;;;;;;;11.60;9.03;;;13.30;99.90;;;;;;5133328;27;20500;-66
2022/10/06 08:16:44;;;;;;;14.13;9.50;;;13.40;99.90;;;;;;5105320;28;20536;-66
2022/10/06 08:19:18;;;;;;;12.50;8.40;;;13.40;99.90;;;;;;5123370;27;20454;-64
2022/10/06 08:21:49;;;;;;;14.20;10.47;;;13.40;99.90;;;;;;5124860;28;20452;-66
2022/10/06 08:24:20;;;;;;;12.50;8.50;;;13.40;99.90;;;;;;5123755;27;20523;-65
2022/10/06 08:26:50;;;;;;;12.80;9.47;;;13.40;99.90;;;;;;5119889;27;20531;-65
2022/10/06 08:29:23;;;;;;;11.00;8.30;;;13.40;99.90;;;;;;5124338;28;20943;-65
2022/10/06 08:31:54;;;;;;;9.40;7.43;;;13.30;99.90;;;;;;5141415;27;20931;-66
2022/10/06 08:34:24;;;;;;;11.40;9.03;;;13.30;99.90;;;;;;5122351;28;20542;-65
2022/10/06 08:36:56;;;;;;;13.83;8.97;;;13.20;99.90;;;;;;5120118;28;20458;-65
2022/10/06 08:39:46;;;;;;;12.70;8.67;;;13.20;99.90;;;;;;5139168;28;20440;-65
2022/10/06 08:42:23;;;;;;;14.73;8.83;;;13.20;99.90;;;;;;5133727;27;20456;-66
2022/10/06 08:45:00;;;;;;;11.90;9.00;;;13.30;99.90;;;;;;5134344;28;20485;-64
2022/10/06 08:47:34;;;;;;;10.70;8.73;;;13.20;99.90;;;;;;5114780;27;20484;-65
2022/10/06 08:50:09;;;;;;;12.20;8.60;;;13.20;99.90;;;;;;5140932;27;20493;-66
2022/10/06 08:52:51;;;;;;;16.70;9.27;;;13.30;99.90;;;;;;5135696;28;20498;-66
2022/10/06 08:55:42;;;;;;;10.87;8.60;;;13.30;99.90;;;;;;5137953;27;20485;-65
2022/10/06 08:58:33;;;;;;;12.17;8.20;;;13.30;99.90;;;;;;5142050;27;20464;-66
2022/10/06 09:01:15;;;;;;;11.90;8.13;;;13.30;99.90;;;;;;5135676;27;20465;-65
2022/10/06 09:03:50;;;;;;;11.70;9.00;;;13.30;99.90;;;;;;5132943;27;20457;-65
2022/10/06 09:06:36;;;;;;;11.77;7.83;;;13.40;99.90;;;;;;5138424;27;20480;-65
2022/10/06 09:09:20;;;;;;;12.60;9.53;;;13.40;99.90;;;;;;5136360;27;21039;-65
2022/10/06 09:12:01;;;;;;;13.80;8.90;;;13.50;99.90;;;;;;5110251;28;20457;-65
2022/10/06 09:14:38;;;;;;;11.77;8.43;;;13.60;99.90;;;;;;5115551;28;20544;-64
2022/10/06 09:17:17;;;;;;;12.73;8.77;;;13.60;99.90;;;;;;5115473;27;20458;-64
2022/10/06 09:19:52;;;;;;;12.90;9.03;;;13.60;99.90;;;;;;5130070;27;20458;-65
2022/10/06 09:22:25;;;;;;;15.80;9.67;;;13.60;99.90;;;;;;5118261;27;20461;-65
2022/10/06 09:25:00;;;;;;;13.13;9.37;;;13.60;99.90;;;;;;5131799;27;20537;-65
2022/10/06 09:27:35;;;;;;;10.90;8.50;;;13.60;99.90;;;;;;5125423;27;20465;-64
2022/10/06 09:30:08;;;;;;;12.43;8.37;;;13.60;99.90;;;;;;5118371;27;20464;-65
2022/10/06 09:32:46;;;;;;;12.37;9.40;;;13.70;99.90;;;;;;5142099;27;20474;-65
2022/10/06 09:35:21;;;;;;;11.07;7.87;;;13.70;99.90;;;;;;5111565;27;20477;-66
2022/10/06 09:37:57;;;;;;;12.13;8.73;;;13.70;99.90;;;;;;5127323;27;20467;-65
2022/10/06 09:40:40;;;;;;;15.47;8.87;;;13.70;99.90;;;;;;5126780;27;20524;-65
2022/10/06 09:43:20;;;;;;;12.00;8.57;;;13.80;99.90;;;;;;5141361;27;20464;-65
2022/10/06 09:45:53;;;;;;;16.00;9.87;;;13.70;99.90;;;;;;5114750;27;20625;-66
2022/10/06 09:48:27;;;;;;;12.23;9.20;;;13.70;99.90;;;;;;5143857;27;20467;-66
2022/10/06 09:51:14;;;;;;;11.77;8.93;;;13.70;99.90;;;;;;5117021;27;20462;-66
2022/10/06 09:54:07;;;;;;;13.93;9.90;;;13.80;99.90;;;;;;5120899;27;20477;-65
2022/10/06 09:56:42;;;;;;;13.63;8.80;;;13.80;99.90;;;;;;5125314;27;20474;-66
2022/10/06 09:59:21;;;;;;;13.80;10.40;;;13.90;99.90;;;;;;5125344;27;20517;-66
2022/10/06 10:01:54;;;;;;;15.90;11.53;;;13.90;99.90;;;;;;5130657;27;20517;-65
2022/10/06 10:04:29;;;;;;;11.40;9.13;;;13.90;99.90;;;;;;5142009;27;20564;-66
2022/10/06 10:07:23;;;;;;;14.27;10.30;;;13.90;99.90;;;;;;5112870;27;20515;-65
2022/10/06 10:09:55;;;;;;;16.60;10.20;;;13.90;99.90;;;;;;5131604;27;20458;-65
2022/10/06 10:12:30;;;;;;;11.63;8.83;;;13.80;99.90;;;;;;5119417;27;21315;-65
2022/10/06 10:15:03;;;;;;;16.40;10.00;;;13.90;99.90;;;;;;5115333;27;20959;-66
2022/10/06 10:17:48;;;;;;;15.90;10.13;;;13.90;99.90;;;;;;5122978;27;20448;-66
2022/10/06 10:20:28;;;;;;;14.90;11.27;;;14.00;99.90;;;;;;5129148;27;20514;-65
2022/10/06 10:23:01;;;;;;;14.67;10.60;;;14.00;99.90;;;;;;5117890;27;20495;-65
2022/10/06 10:25:47;;;;;;;18.63;10.40;;;14.10;99.90;;;;;;5133810;27;20566;-65
2022/10/06 10:28:32;;;;;;;16.43;10.37;;;14.10;99.90;;;;;;5143102;27;20453;-65
2022/10/06 10:31:11;;;;;;;15.60;10.43;;;14.10;99.90;;;;;;5116219;27;20454;-65
2022/10/06 10:33:49;;;;;;;13.80;10.33;;;14.10;99.90;;;;;;5124481;27;20945;-66
2022/10/06 10:36:49;;;;;;;14.00;10.80;;;14.20;99.90;;;;;;5134214;27;20517;-66
2022/10/06 10:39:29;;;;;;;15.30;10.50;;;14.20;99.90;;;;;;5127452;27;20446;-64
2022/10/06 10:42:02;;;;;;;14.73;10.20;;;14.20;99.90;;;;;;5113949;27;20445;-65
2022/10/06 10:44:37;;;;;;;16.20;11.27;;;14.30;99.90;;;;;;5142822;27;20461;-65
2022/10/06 10:47:18;;;;;;;18.20;11.70;;;14.30;99.90;;;;;;5129024;27;20464;-66
2022/10/06 10:49:57;;;;;;;15.87;12.90;;;14.40;99.90;;;;;;5130958;27;20464;-66
2022/10/06 10:52:33;;;;;;;16.07;10.97;;;14.40;99.90;;;;;;5108908;27;20904;-65
2022/10/06 10:55:16;;;;;;;14.83;9.93;;;14.40;99.90;;;;;;5127111;27;20872;-65
2022/10/06 10:57:49;;;;;;;14.67;10.50;;;14.40;99.90;;;;;;5112714;27;20516;-65
2022/10/06 11:00:24;;;;;;;18.07;11.80;;;14.40;99.90;;;;;;5110739;27;20456;-66
2022/10/06 11:02:56;;;;;;;21.80;12.77;;;14.40;99.90;;;;;;5119105;27;20453;-65
2022/10/06 11:05:42;;;;;;;17.77;11.30;;;14.40;99.90;;;;;;5131488;27;20543;-66
2022/10/06 11:08:23;;;;;;;18.80;12.00;;;14.40;99.90;;;;;;5119174;27;20457;-65
2022/10/06 11:10:58;;;;;;;17.17;11.73;;;14.40;99.90;;;;;;5139669;27;20457;-65
2022/10/06 11:13:33;;;;;;;20.37;12.53;;;14.50;99.90;;;;;;5144409;27;20520;-66
2022/10/06 11:16:28;;;;;;;16.67;11.30;;;14.50;99.90;;;;;;5116228;27;20486;-65
2022/10/06 11:19:23;;;;;;;18.13;11.37;;;14.60;99.90;;;;;;5143072;27;20473;-65
2022/10/06 11:22:03;;;;;;;18.90;11.10;;;14.60;99.90;;;;;;5129272;27;20445;-66
2022/10/06 11:24:44;;;;;;;21.93;13.27;;;14.70;99.90;;;;;;5134218;27;20457;-66
2022/10/06 11:27:28;;;;;;;18.57;12.77;;;14.70;99.90;;;;;;5113676;27;20483;-65
2022/10/06 11:30:06;;;;;;;22.70;11.50;;;14.70;99.90;;;;;;5118416;27;20454;-65
2022/10/06 11:32:49;;;;;;;21.10;13.57;;;14.80;99.90;;;;;;5117710;27;20516;-65
2022/10/06 11:35:23;;;;;;;19.70;12.67;;;14.70;99.90;;;;;;5115591;27;20462;-65
2022/10/06 11:38:00;;;;;;;16.23;10.60;;;14.80;99.90;;;;;;5118971;27;20457;-65
2022/10/06 11:40:49;;;;;;;18.93;12.10;;;14.80;99.90;;;;;;5122922;27;20456;-65
2022/10/06 11:43:32;;;;;;;17.23;13.10;;;14.80;99.90;;;;;;5113093;27;20454;-65
2022/10/06 11:46:10;;;;;;;21.50;11.83;;;14.90;99.90;;;;;;5119724;27;20508;-66
2022/10/06 11:48:42;;;;;;;21.67;13.23;;;14.90;99.90;;;;;;5119005;27;20454;-65
2022/10/06 11:51:32;;;;;;;19.67;12.17;;;14.80;99.90;;;;;;5132141;27;20500;-65
2022/10/06 11:54:02;;;;;;;18.43;12.57;;;14.90;99.90;;;;;;5143446;27;20440;-65
2022/10/06 11:56:44;;;;;;;19.50;12.50;;;14.90;99.90;;;;;;5143285;27;20485;-65
2022/10/06 11:59:26;;;;;;;23.60;13.37;;;15.00;99.90;;;;;;5143635;27;20474;-65
2022/10/06 12:02:01;;;;;;;19.70;12.20;;;15.00;99.90;;;;;;5143700;27;20444;-66
2022/10/06 12:04:32;;;;;;;21.50;12.60;;;14.90;99.90;;;;;;5144003;27;20436;-66
2022/10/06 12:07:04;;;;;;;21.10;13.17;;;14.80;99.90;;;;;;5143613;27;20468;-66
2022/10/06 12:10:15;;;;;;;19.30;12.07;;;14.80;99.90;;;;;;5112383;27;20462;-66
2022/10/06 12:12:54;;;;;;;22.67;13.20;;;14.90;99.90;;;;;;5126172;27;20461;-66
2022/10/06 12:15:53;;;;;;;16.80;11.20;;;14.80;99.90;;;;;;5130178;27;20491;-65
2022/10/06 12:18:50;;;;;;;21.70;12.90;;;14.90;99.90;;;;;;5132352;27;20504;-66
2022/10/06 12:21:47;;;;;;;19.07;13.07;;;14.90;99.90;;;;;;5122780;27;20461;-66
2022/10/06 12:24:32;;;;;;;23.43;12.20;;;14.90;99.90;;;;;;5120658;27;20752;-66
2022/10/06 12:27:21;;;;;;;19.57;12.50;;;14.90;99.90;;;;;;5109546;27;20531;-66
2022/10/06 12:30:02;;;;;;;19.67;12.57;;;14.80;99.90;;;;;;5110018;28;20800;-66
2022/10/06 12:32:49;;;;;;;20.07;13.13;;;14.80;99.90;;;;;;5126078;28;20503;-66
2022/10/06 12:35:34;;;;;;;20.43;13.07;;;14.80;99.90;;;;;;5121285;28;20510;-65
2022/10/06 12:38:05;;;;;;;22.17;13.73;;;14.80;99.90;;;;;;5127504;28;20559;-66
2022/10/06 12:40:55;;;;;;;22.00;13.90;;;14.90;99.90;;;;;;5116294;27;20510;-66
2022/10/06 12:43:32;;;;;;;18.20;12.80;;;14.90;99.90;;;;;;5112563;28;20837;-66
2022/10/06 12:46:06;;;;;;;19.13;13.10;;;15.00;99.90;;;;;;5120821;28;20469;-66
2022/10/06 12:48:42;;;;;;;19.00;12.40;;;14.90;99.90;;;;;;5135060;27;20555;-66
2022/10/06 12:51:31;;;;;;;19.93;13.57;;;14.90;99.90;;;;;;5127142;27;20510;-66
2022/10/06 12:54:19;;;;;;;17.60;11.70;;;14.90;99.90;;;;;;5143120;27;20520;-65
2022/10/06 12:57:00;;;;;;;23.30;13.77;;;14.90;99.90;;;;;;5132616;27;20501;-65
2022/10/06 12:59:32;;;;;;;21.73;13.13;;;14.80;99.90;;;;;;5146974;27;20440;-65
2022/10/06 13:02:10;;;;;;;21.50;13.80;;;14.80;99.90;;;;;;5117604;27;20503;-65
2022/10/06 13:04:43;;;;;;;20.50;13.87;;;14.80;99.90;;;;;;5121878;27;20523;-65
2022/10/06 13:07:18;;;;;;;20.50;13.00;;;14.80;99.90;;;;;;5136112;27;20551;-65
2022/10/06 13:09:52;;;;;;;22.00;13.03;;;14.80;99.90;;;;;;5131257;27;20612;-65
2022/10/06 13:12:26;;;;;;;19.30;13.33;;;14.90;99.90;;;;;;5133582;27;20456;-65
2022/10/06 13:15:22;;;;;;;26.07;13.63;;;14.80;99.90;;;;;;5131850;27;20505;-66
2022/10/06 13:17:58;;;;;;;22.00;14.47;;;14.80;99.90;;;;;;5117169;27;20492;-66
2022/10/06 13:20:38;;;;;;;21.33;13.60;;;14.90;99.90;;;;;;5126307;27;20460;-67
2022/10/06 13:23:27;;;;;;;21.37;14.30;;;14.90;99.90;;;;;;5135052;27;20456;-66
2022/10/06 13:26:00;;;;;;;23.90;14.80;;;14.90;99.90;;;;;;5125186;28;20956;-67